Time;durP1;ratioP1;P1;durP2;ratioP2;P2;SDS_P1;SDS_P2;PMS_P1;PMS_P2;Temp;Humidity;BMP_temperature;BMP_pressure;BME280_temperature;BME280_humidity;BME280_pressure;Samples;Min_cycle;Max_cycle;Signal;HPM_P1;HPM_P2
2022/07/22 00:01:25;;;;;;;0.40;0.40;;;19.50;99.90;;;;;;5013028;28;20699;-72
2022/07/22 00:04:13;;;;;;;0.40;0.40;;;19.50;99.90;;;;;;5013736;28;20206;-71
2022/07/22 00:07:01;;;;;;;0.40;0.40;;;19.50;99.90;;;;;;5014012;28;20198;-72
2022/07/22 00:09:51;;;;;;;0.50;0.50;;;19.50;99.90;;;;;;5013242;28;20269;-72
2022/07/22 00:12:39;;;;;;;0.70;0.70;;;19.50;99.90;;;;;;5013752;28;20695;-70
2022/07/22 00:15:29;;;;;;;0.40;0.40;;;19.50;99.90;;;;;;5013593;28;20726;-72
2022/07/22 00:18:18;;;;;;;0.40;0.40;;;19.40;99.90;;;;;;5012444;28;20206;-71
2022/07/22 00:21:06;;;;;;;0.40;0.40;;;19.40;99.90;;;;;;5013286;28;20676;-71
2022/07/22 00:23:58;;;;;;;0.40;0.40;;;19.40;99.90;;;;;;5013354;28;20702;-71
2022/07/22 00:26:46;;;;;;;0.40;0.40;;;19.40;99.90;;;;;;5014196;28;20223;-70
2022/07/22 00:29:34;;;;;;;0.40;0.40;;;19.30;99.90;;;;;;5013556;28;20202;-71
2022/07/22 00:32:24;;;;;;;0.40;0.40;;;19.30;99.90;;;;;;5012366;28;20600;-70
2022/07/22 00:35:12;;;;;;;0.50;0.50;;;19.30;99.90;;;;;;5013221;28;20245;-70
2022/07/22 00:38:00;;;;;;;0.50;0.50;;;19.30;99.90;;;;;;5014314;28;20253;-70
2022/07/22 00:40:48;;;;;;;0.40;0.40;;;19.30;99.90;;;;;;5013165;28;20198;-70
2022/07/22 00:43:58;;;;;;;0.40;0.40;;;19.30;99.90;;;;;;5013936;28;20202;-70
2022/07/22 00:46:47;;;;;;;0.40;0.40;;;19.30;99.90;;;;;;5011547;28;20226;-71
2022/07/22 00:49:36;;;;;;;1.75;0.93;;;19.30;99.90;;;;;;5013053;28;20194;-71
2022/07/22 00:52:25;;;;;;;0.50;0.50;;;19.20;99.90;;;;;;5012699;28;20234;-70
2022/07/22 00:55:14;;;;;;;0.40;0.40;;;19.30;99.90;;;;;;5013095;28;20256;-70
2022/07/22 00:58:03;;;;;;;1.08;0.85;;;19.20;99.90;;;;;;5028269;28;20280;-70
2022/07/22 01:00:51;;;;;;;0.40;0.40;;;19.30;99.90;;;;;;5029904;28;20201;-70
2022/07/22 01:03:39;;;;;;;0.40;0.40;;;19.20;99.90;;;;;;5031373;28;20694;-70
2022/07/22 01:06:33;;;;;;;0.40;0.40;;;19.20;99.90;;;;;;5030052;28;20222;-70
2022/07/22 01:09:21;;;;;;;0.50;0.50;;;19.20;99.90;;;;;;5031821;28;20206;-71
2022/07/22 01:12:10;;;;;;;0.60;0.60;;;19.20;99.90;;;;;;5033066;28;20206;-71
2022/07/22 01:14:58;;;;;;;0.40;0.40;;;19.30;99.90;;;;;;5032304;28;20229;-71
2022/07/22 01:17:46;;;;;;;0.40;0.40;;;19.30;99.90;;;;;;5032020;28;20686;-70
2022/07/22 01:20:36;;;;;;;0.40;0.40;;;19.30;99.90;;;;;;5032052;28;20271;-70
2022/07/22 01:23:24;;;;;;;0.40;0.40;;;19.30;99.90;;;;;;5033143;28;20582;-70
2022/07/22 01:26:13;;;;;;;1.85;1.35;;;19.20;99.90;;;;;;5031621;28;20602;-70
2022/07/22 01:29:02;;;;;;;0.50;0.50;;;19.10;99.90;;;;;;5031906;28;20202;-70
2022/07/22 01:31:50;;;;;;;1.48;0.60;;;19.10;99.90;;;;;;5035353;28;20701;-70
2022/07/22 01:34:38;;;;;;;0.77;0.77;;;19.10;99.90;;;;;;5036037;28;20233;-70
2022/07/22 01:37:27;;;;;;;0.50;0.50;;;19.10;99.90;;;;;;5035209;28;20236;-70
2022/07/22 01:40:15;;;;;;;0.40;0.40;;;19.10;99.90;;;;;;5035155;28;20205;-73
2022/07/22 01:43:03;;;;;;;0.40;0.40;;;19.10;99.90;;;;;;5034935;28;20277;-70
2022/07/22 01:45:53;;;;;;;2.70;2.33;;;19.10;99.90;;;;;;5036089;28;20233;-70
2022/07/22 01:48:41;;;;;;;0.40;0.40;;;19.10;99.90;;;;;;5035679;28;20234;-70
2022/07/22 01:51:29;;;;;;;0.40;0.40;;;19.10;99.90;;;;;;5035210;28;20234;-70
2022/07/22 01:54:19;;;;;;;0.85;0.85;;;19.10;99.90;;;;;;5030932;28;20233;-71
2022/07/22 01:57:07;;;;;;;0.40;0.40;;;19.10;99.90;;;;;;5033881;28;20209;-71
2022/07/22 01:59:55;;;;;;;0.40;0.40;;;19.10;99.90;;;;;;5035718;28;20194;-71
2022/07/22 02:02:43;;;;;;;3.05;1.45;;;19.10;99.90;;;;;;5036764;28;20285;-70
2022/07/22 02:05:32;;;;;;;0.80;0.80;;;19.00;99.90;;;;;;5035972;28;20232;-71
2022/07/22 02:08:20;;;;;;;0.60;0.60;;;18.90;99.90;;;;;;5036296;28;20194;-70
2022/07/22 02:11:10;;;;;;;0.40;0.40;;;18.90;99.90;;;;;;5034238;28;20209;-71
2022/07/22 02:13:58;;;;;;;1.73;1.63;;;18.80;99.90;;;;;;5035222;28;20227;-70
2022/07/22 02:16:46;;;;;;;0.40;0.40;;;18.80;99.90;;;;;;5036071;28;20384;-70
2022/07/22 02:19:34;;;;;;;0.40;0.40;;;18.80;99.90;;;;;;5035698;28;20209;-70
2022/07/22 02:22:23;;;;;;;0.55;0.52;;;18.80;99.90;;;;;;5037302;28;20202;-70
2022/07/22 02:25:12;;;;;;;0.40;0.40;;;18.70;99.90;;;;;;5038299;28;20214;-70
2022/07/22 02:28:01;;;;;;;0.50;0.50;;;18.80;99.90;;;;;;5037064;28;20202;-71
2022/07/22 02:30:49;;;;;;;1.25;1.25;;;18.70;99.90;;;;;;5036927;28;20198;-69
2022/07/22 02:33:37;;;;;;;0.60;0.60;;;18.50;99.90;;;;;;5037214;28;20218;-70
2022/07/22 02:36:26;;;;;;;0.40;0.40;;;18.50;99.90;;;;;;5037599;28;20556;-69
2022/07/22 02:39:14;;;;;;;1.20;0.70;;;18.50;99.90;;;;;;5037742;28;20203;-70
2022/07/22 02:42:02;;;;;;;0.40;0.40;;;18.40;99.90;;;;;;5036912;28;20590;-70
2022/07/22 02:44:51;;;;;;;0.40;0.40;;;18.40;99.90;;;;;;5035560;28;20591;-71
2022/07/22 02:47:49;;;;;;;0.40;0.40;;;18.30;99.90;;;;;;5036678;28;20198;-70
2022/07/22 02:50:38;;;;;;;0.40;0.40;;;18.30;99.90;;;;;;5036791;28;20210;-70
2022/07/22 02:53:26;;;;;;;0.40;0.40;;;18.20;99.90;;;;;;5039468;28;20232;-70
2022/07/22 02:56:15;;;;;;;0.40;0.40;;;18.20;99.90;;;;;;5036652;28;20230;-70
2022/07/22 02:59:03;;;;;;;0.50;0.50;;;18.20;99.90;;;;;;5016859;28;20608;-70
2022/07/22 03:01:52;;;;;;;0.40;0.40;;;18.30;99.90;;;;;;5015396;28;20203;-70
2022/07/22 03:04:40;;;;;;;0.50;0.50;;;18.10;99.90;;;;;;5015933;28;20392;-70
2022/07/22 03:07:29;;;;;;;0.40;0.40;;;18.20;99.90;;;;;;5015330;28;20221;-69
2022/07/22 03:10:17;;;;;;;0.40;0.40;;;18.30;99.90;;;;;;5015856;28;20203;-71
2022/07/22 03:13:05;;;;;;;0.50;0.50;;;18.10;99.90;;;;;;5015975;28;20199;-70
2022/07/22 03:15:53;;;;;;;0.40;0.40;;;18.20;99.90;;;;;;5016126;28;20222;-70
2022/07/22 03:18:42;;;;;;;0.40;0.40;;;18.10;99.90;;;;;;5015217;28;20225;-72
2022/07/22 03:21:30;;;;;;;0.40;0.40;;;18.20;99.90;;;;;;5023806;28;20207;-71
2022/07/22 03:24:18;;;;;;;0.40;0.40;;;18.20;99.90;;;;;;5022325;28;20225;-70
2022/07/22 03:27:07;;;;;;;3.60;1.27;;;18.30;99.90;;;;;;5021271;28;20203;-70
2022/07/22 03:29:55;;;;;;;0.40;0.40;;;18.30;99.90;;;;;;5019860;28;20210;-70
2022/07/22 03:32:44;;;;;;;0.40;0.40;;;18.40;99.90;;;;;;5015303;28;20210;-70
2022/07/22 03:35:34;;;;;;;0.50;0.50;;;18.40;99.90;;;;;;5016477;28;20706;-70
2022/07/22 03:38:23;;;;;;;0.40;0.40;;;18.40;99.90;;;;;;5014691;28;20622;-70
2022/07/22 03:41:11;;;;;;;0.40;0.40;;;18.40;99.90;;;;;;5014854;28;20214;-70
2022/07/22 03:43:59;;;;;;;0.50;0.50;;;18.40;99.90;;;;;;5014748;28;20240;-69
2022/07/22 03:46:47;;;;;;;0.40;0.40;;;18.50;99.90;;;;;;5015562;28;20708;-69
2022/07/22 03:49:35;;;;;;;0.40;0.40;;;18.50;99.90;;;;;;5015663;28;20286;-69
2022/07/22 03:52:25;;;;;;;0.40;0.40;;;18.60;99.90;;;;;;5016360;28;20206;-72
2022/07/22 03:55:13;;;;;;;0.40;0.40;;;18.50;99.90;;;;;;5015978;28;20241;-70
2022/07/22 03:58:01;;;;;;;0.60;0.60;;;18.50;99.90;;;;;;5030687;28;20203;-70
2022/07/22 04:00:49;;;;;;;0.40;0.40;;;18.40;99.90;;;;;;5034939;28;20213;-70
2022/07/22 04:03:37;;;;;;;0.40;0.40;;;18.40;99.90;;;;;;5034866;28;20285;-70
2022/07/22 04:06:25;;;;;;;0.40;0.40;;;18.40;99.90;;;;;;5033485;28;20222;-70
2022/07/22 04:09:15;;;;;;;0.40;0.40;;;18.40;99.90;;;;;;5014941;28;20203;-70
2022/07/22 04:12:03;;;;;;;0.40;0.40;;;18.40;99.90;;;;;;5015899;28;20702;-70
2022/07/22 04:14:51;;;;;;;0.85;0.85;;;18.50;99.90;;;;;;5020009;28;20226;-70
2022/07/22 04:17:39;;;;;;;0.40;0.40;;;18.60;99.90;;;;;;5017725;28;20207;-69
2022/07/22 04:20:28;;;;;;;0.40;0.40;;;18.60;99.90;;;;;;5014971;28;20226;-70
2022/07/22 04:23:17;;;;;;;0.40;0.40;;;18.70;99.90;;;;;;5016177;28;20213;-70
2022/07/22 04:26:10;;;;;;;0.40;0.40;;;18.80;99.90;;;;;;5016033;28;20301;-70
2022/07/22 04:28:58;;;;;;;0.82;0.82;;;19.00;99.90;;;;;;5015458;28;20198;-70
2022/07/22 04:31:47;;;;;;;0.40;0.40;;;19.00;99.90;;;;;;5015874;28;20203;-70
2022/07/22 04:34:35;;;;;;;1.25;1.15;;;19.10;99.90;;;;;;5016277;28;20655;-70
2022/07/22 04:37:23;;;;;;;0.40;0.40;;;19.20;99.90;;;;;;5015986;28;20199;-70
2022/07/22 04:40:12;;;;;;;0.43;0.43;;;19.20;99.90;;;;;;5015839;28;20206;-70
2022/07/22 04:43:02;;;;;;;0.40;0.40;;;19.30;99.90;;;;;;5017306;28;20199;-70
2022/07/22 04:45:51;;;;;;;0.40;0.40;;;19.40;99.90;;;;;;5031855;28;20247;-72
2022/07/22 04:48:39;;;;;;;0.50;0.50;;;19.50;99.90;;;;;;5034219;28;20206;-71
2022/07/22 04:51:27;;;;;;;0.40;0.40;;;19.60;99.90;;;;;;5034982;28;20218;-71
2022/07/22 04:54:15;;;;;;;0.55;0.55;;;19.60;99.90;;;;;;5033743;28;22122;-71
2022/07/22 04:57:03;;;;;;;0.40;0.40;;;19.70;99.90;;;;;;5074043;22;20225;-72
2022/07/22 04:59:53;;;;;;;0.70;0.70;;;19.70;99.90;;;;;;5051055;28;20585;-71
2022/07/22 05:02:41;;;;;;;0.40;0.40;;;19.70;99.90;;;;;;5052722;28;20201;-71
2022/07/22 05:05:29;;;;;;;0.98;0.98;;;19.80;99.90;;;;;;5052983;28;20224;-72
2022/07/22 05:08:18;;;;;;;0.50;0.50;;;19.80;99.90;;;;;;5056605;28;20197;-71
2022/07/22 05:11:08;;;;;;;1.85;1.40;;;19.80;99.90;;;;;;5056323;28;20247;-71
2022/07/22 05:13:56;;;;;;;0.40;0.40;;;19.90;99.90;;;;;;5056549;28;20577;-71
2022/07/22 05:16:45;;;;;;;0.47;0.47;;;19.90;99.90;;;;;;5055791;28;20228;-72
2022/07/22 05:19:33;;;;;;;0.50;0.50;;;19.80;99.90;;;;;;5057252;28;20208;-72
2022/07/22 05:22:22;;;;;;;0.40;0.40;;;19.90;99.90;;;;;;5056557;28;20205;-71
2022/07/22 05:25:10;;;;;;;0.75;0.75;;;20.00;99.90;;;;;;5056614;28;20700;-71
2022/07/22 05:27:58;;;;;;;0.80;0.80;;;20.00;99.90;;;;;;5055435;28;20201;-71
2022/07/22 05:30:46;;;;;;;0.40;0.40;;;20.10;99.90;;;;;;5055887;28;20701;-72
2022/07/22 05:33:36;;;;;;;0.40;0.40;;;20.10;99.90;;;;;;5055918;28;20586;-71
2022/07/22 05:36:24;;;;;;;0.50;0.50;;;20.10;99.90;;;;;;5056687;28;20705;-71
2022/07/22 05:39:12;;;;;;;0.60;0.60;;;20.20;99.90;;;;;;5058537;28;20204;-71
2022/07/22 05:42:00;;;;;;;0.40;0.40;;;20.20;99.90;;;;;;5056791;28;20205;-71
2022/07/22 05:44:48;;;;;;;0.77;0.77;;;20.30;99.90;;;;;;5056536;28;20607;-72
2022/07/22 05:47:37;;;;;;;1.00;0.60;;;20.40;99.90;;;;;;5056754;28;20205;-71
2022/07/22 05:50:26;;;;;;;0.55;0.55;;;20.40;99.90;;;;;;5057281;28;20201;-71
2022/07/22 05:53:15;;;;;;;0.40;0.40;;;20.40;99.90;;;;;;5062122;28;20294;-72
2022/07/22 05:56:03;;;;;;;1.38;1.27;;;20.50;99.90;;;;;;5071834;28;20208;-73
2022/07/22 05:58:55;;;;;;;0.40;0.40;;;20.60;99.90;;;;;;5072373;28;20270;-72
2022/07/22 06:01:44;;;;;;;1.63;1.52;;;20.70;99.90;;;;;;5059851;28;20265;-73
2022/07/22 06:04:32;;;;;;;3.80;2.50;;;20.70;99.90;;;;;;5068500;28;20210;-72
2022/07/22 06:07:22;;;;;;;1.48;1.38;;;20.70;99.90;;;;;;5064999;28;20280;-71
2022/07/22 06:10:11;;;;;;;2.75;2.65;;;20.80;99.90;;;;;;5058508;28;20208;-71
2022/07/22 06:12:59;;;;;;;0.40;0.40;;;20.80;99.90;;;;;;5056957;28;20213;-72
2022/07/22 06:15:47;;;;;;;1.55;1.20;;;20.80;99.90;;;;;;5056134;28;20217;-72
2022/07/22 06:18:35;;;;;;;0.40;0.40;;;20.80;99.90;;;;;;5058406;28;20326;-71
2022/07/22 06:21:23;;;;;;;0.50;0.50;;;20.90;99.90;;;;;;5056065;28;20204;-72
2022/07/22 06:24:13;;;;;;;1.95;1.75;;;21.00;99.90;;;;;;5057487;28;20605;-72
2022/07/22 06:27:01;;;;;;;0.40;0.40;;;21.10;99.90;;;;;;5057179;28;20217;-73
2022/07/22 06:29:49;;;;;;;0.50;0.50;;;21.20;99.90;;;;;;5057285;28;20208;-72
2022/07/22 06:32:37;;;;;;;1.30;1.20;;;21.40;99.90;;;;;;5055403;28;20627;-72
2022/07/22 06:35:33;;;;;;;0.40;0.40;;;21.40;99.90;;;;;;5058659;28;20225;-71
2022/07/22 06:38:21;;;;;;;0.50;0.50;;;21.50;99.90;;;;;;5059305;28;20580;-73
2022/07/22 06:41:21;;;;;;;0.40;0.40;;;21.60;99.90;;;;;;5057860;28;20205;-72
2022/07/22 06:44:10;;;;;;;1.67;1.42;;;21.60;99.90;;;;;;5060928;28;20212;-72
2022/07/22 06:46:58;;;;;;;0.68;0.68;;;21.80;99.90;;;;;;5061927;28;20248;-72
2022/07/22 06:49:46;;;;;;;1.25;1.25;;;21.70;99.90;;;;;;5058577;28;20194;-72
2022/07/22 06:52:34;;;;;;;1.15;0.73;;;21.70;99.90;;;;;;5062885;28;20208;-72
2022/07/22 06:55:23;;;;;;;3.25;2.20;;;21.90;99.90;;;;;;5063148;28;20259;-71
2022/07/22 06:58:12;;;;;;;0.40;0.40;;;22.20;99.90;;;;;;5044327;28;20299;-71
2022/07/22 07:01:00;;;;;;;2.05;1.75;;;22.00;99.90;;;;;;5043187;28;20209;-73
2022/07/22 07:03:49;;;;;;;0.40;0.40;;;21.70;99.90;;;;;;5040923;28;20281;-71
2022/07/22 07:06:37;;;;;;;0.88;0.88;;;21.50;99.90;;;;;;5038542;28;20218;-71
2022/07/22 07:09:25;;;;;;;0.55;0.55;;;21.40;99.90;;;;;;5034217;28;20574;-71
2022/07/22 07:12:13;;;;;;;0.40;0.40;;;21.40;99.90;;;;;;5033987;28;20697;-71
2022/07/22 07:15:03;;;;;;;3.22;1.83;;;21.30;99.90;;;;;;5044123;28;20193;-71
2022/07/22 07:18:11;;;;;;;0.40;0.40;;;21.40;99.90;;;;;;5055408;28;20243;-73
2022/07/22 07:21:00;;;;;;;0.40;0.40;;;21.60;99.90;;;;;;5054035;28;20267;-71
2022/07/22 07:23:48;;;;;;;0.68;0.47;;;21.80;99.90;;;;;;5056294;28;20209;-71
2022/07/22 07:26:36;;;;;;;0.40;0.40;;;21.90;99.90;;;;;;5053459;28;20264;-72
2022/07/22 07:29:24;;;;;;;1.45;1.45;;;22.00;99.90;;;;;;5055299;28;20194;-71
2022/07/22 07:32:14;;;;;;;1.52;0.93;;;22.00;99.90;;;;;;5054594;28;20197;-72
2022/07/22 07:35:02;;;;;;;0.40;0.40;;;21.90;99.90;;;;;;5056390;28;20202;-71
2022/07/22 07:37:50;;;;;;;1.25;1.15;;;22.00;99.90;;;;;;5055445;28;20209;-71
2022/07/22 07:40:38;;;;;;;0.40;0.40;;;22.10;99.90;;;;;;5054189;28;20212;-71
2022/07/22 07:43:26;;;;;;;0.40;0.40;;;22.40;99.90;;;;;;5060888;28;20205;-73
2022/07/22 07:46:14;;;;;;;1.63;1.45;;;22.60;99.90;;;;;;5056503;28;20324;-71
2022/07/22 07:49:04;;;;;;;0.40;0.40;;;22.80;99.90;;;;;;5055814;28;20213;-72
2022/07/22 07:51:52;;;;;;;0.70;0.70;;;22.90;99.90;;;;;;5054737;28;20205;-71
2022/07/22 07:54:43;;;;;;;1.15;1.05;;;23.00;99.90;;;;;;5055490;28;20208;-71
2022/07/22 07:57:52;;;;;;;0.40;0.40;;;23.00;99.90;;;;;;5055804;28;20247;-73
2022/07/22 08:00:42;;;;;;;1.60;1.05;;;22.80;99.90;;;;;;5053815;28;20213;-72
2022/07/22 08:03:31;;;;;;;0.50;0.50;;;22.70;99.90;;;;;;5053434;28;20208;-72
2022/07/22 08:06:21;;;;;;;0.40;0.40;;;22.70;99.90;;;;;;5053473;28;20221;-71
2022/07/22 08:09:10;;;;;;;0.80;0.60;;;23.00;99.90;;;;;;5053199;28;20197;-71
2022/07/22 08:11:58;;;;;;;0.40;0.40;;;23.20;99.90;;;;;;5053281;28;20224;-72
2022/07/22 08:14:47;;;;;;;2.17;0.80;;;23.30;99.90;;;;;;5053544;28;20201;-72
2022/07/22 08:17:35;;;;;;;4.47;4.20;;;23.50;99.90;;;;;;5054194;28;20229;-72
2022/07/22 08:20:23;;;;;;;1.10;1.08;;;23.60;99.90;;;;;;5053024;28;20213;-71
2022/07/22 08:23:13;;;;;;;0.40;0.40;;;23.60;99.90;;;;;;5056000;28;20194;-72
2022/07/22 08:26:01;;;;;;;0.40;0.40;;;23.70;99.90;;;;;;5057663;28;20598;-72
2022/07/22 08:28:49;;;;;;;0.63;0.63;;;24.00;99.90;;;;;;5058243;28;20204;-72
2022/07/22 08:31:38;;;;;;;0.70;0.70;;;24.20;99.90;;;;;;5056675;28;20200;-72
2022/07/22 08:34:26;;;;;;;1.23;1.23;;;24.40;99.90;;;;;;5054923;28;20209;-72
2022/07/22 08:37:14;;;;;;;0.45;0.45;;;24.40;99.90;;;;;;5057573;28;20232;-72
2022/07/22 08:40:06;;;;;;;1.33;1.33;;;24.40;99.90;;;;;;5057611;28;20687;-71
2022/07/22 08:42:54;;;;;;;0.40;0.40;;;24.30;99.90;;;;;;5056422;28;20198;-72
2022/07/22 08:45:42;;;;;;;0.50;0.50;;;24.10;99.90;;;;;;5057699;28;20221;-72
2022/07/22 08:48:31;;;;;;;2.28;2.08;;;24.10;99.90;;;;;;5056805;28;20281;-72
2022/07/22 08:51:21;;;;;;;0.40;0.40;;;23.90;99.90;;;;;;5055949;28;20282;-72
2022/07/22 08:54:10;;;;;;;0.50;0.50;;;23.70;99.90;;;;;;5054754;28;20263;-71
2022/07/22 08:56:59;;;;;;;0.88;0.88;;;23.40;99.90;;;;;;5053787;28;20225;-71
2022/07/22 08:59:52;;;;;;;1.15;0.77;;;23.20;99.90;;;;;;5053299;28;20193;-72
2022/07/22 09:02:42;;;;;;;0.60;0.60;;;22.70;99.90;;;;;;5053284;28;20211;-72
2022/07/22 09:05:34;;;;;;;1.30;1.15;;;22.20;99.90;;;;;;5052547;28;20225;-71
2022/07/22 09:08:51;;;;;;;0.60;0.60;;;22.10;99.90;;;;;;5054122;28;20582;-71
2022/07/22 09:11:39;;;;;;;1.10;1.05;;;22.20;99.90;;;;;;5052515;28;20681;-72
2022/07/22 09:14:31;;;;;;;0.40;0.40;;;22.30;99.90;;;;;;5055174;28;20202;-71
2022/07/22 09:17:28;;;;;;;1.35;1.25;;;22.50;99.90;;;;;;5056244;28;20732;-72
2022/07/22 09:20:18;;;;;;;0.60;0.60;;;22.60;99.90;;;;;;5058892;28;20205;-72
2022/07/22 09:23:17;;;;;;;0.50;0.50;;;22.70;99.90;;;;;;5059983;28;20217;-72
2022/07/22 09:26:05;;;;;;;0.70;0.60;;;23.00;99.90;;;;;;5060741;28;20217;-72
2022/07/22 09:28:56;;;;;;;1.23;0.90;;;23.30;99.90;;;;;;5064777;28;20205;-72
2022/07/22 09:31:52;;;;;;;0.85;0.85;;;23.60;99.90;;;;;;5064668;28;20229;-72
2022/07/22 09:34:41;;;;;;;0.95;0.95;;;24.00;99.90;;;;;;5070570;28;20209;-73
2022/07/22 09:37:29;;;;;;;0.98;0.88;;;24.20;99.90;;;;;;5068979;28;20225;-73
2022/07/22 09:40:19;;;;;;;0.40;0.40;;;24.30;99.90;;;;;;5059822;28;20563;-71
2022/07/22 09:43:11;;;;;;;0.68;0.68;;;24.30;99.90;;;;;;5056877;28;20206;-72
2022/07/22 09:46:00;;;;;;;1.45;1.35;;;24.50;99.90;;;;;;5054607;28;20224;-72
2022/07/22 09:48:49;;;;;;;3.10;1.75;;;24.90;99.90;;;;;;5052250;28;20239;-71
2022/07/22 09:51:38;;;;;;;0.40;0.40;;;25.00;99.90;;;;;;5053623;28;20209;-73
2022/07/22 09:54:28;;;;;;;1.02;0.93;;;25.00;99.90;;;;;;5055933;28;20239;-72
2022/07/22 09:57:16;;;;;;;1.38;1.38;;;25.00;99.90;;;;;;5055614;28;20225;-72
2022/07/22 10:00:08;;;;;;;0.50;0.50;;;24.90;99.90;;;;;;5055424;28;20201;-72
2022/07/22 10:02:58;;;;;;;1.38;1.27;;;24.90;99.90;;;;;;5055202;28;20560;-71
2022/07/22 10:05:49;;;;;;;0.40;0.40;;;24.80;99.90;;;;;;5056807;28;20241;-72
2022/07/22 10:08:37;;;;;;;0.50;0.50;;;24.70;99.90;;;;;;5056804;28;20600;-72
2022/07/22 10:11:26;;;;;;;0.45;0.45;;;24.70;99.90;;;;;;5054937;28;20197;-72
2022/07/22 10:14:15;;;;;;;0.70;0.50;;;24.90;99.90;;;;;;5055785;28;20259;-72
2022/07/22 10:17:10;;;;;;;0.60;0.60;;;24.80;99.90;;;;;;5055541;28;20300;-72
2022/07/22 10:19:59;;;;;;;0.40;0.40;;;25.00;99.90;;;;;;5055949;28;20592;-72
2022/07/22 10:22:51;;;;;;;2.25;2.05;;;25.10;99.90;;;;;;5056722;28;20236;-72
2022/07/22 10:25:52;;;;;;;1.02;0.75;;;25.00;99.90;;;;;;5068317;28;20271;-74
2022/07/22 10:28:40;;;;;;;0.82;0.82;;;24.80;99.90;;;;;;5074417;28;20198;-75
2022/07/22 10:31:29;;;;;;;2.13;1.35;;;24.80;99.90;;;;;;5064512;28;20209;-72
2022/07/22 10:34:17;;;;;;;0.40;0.40;;;24.90;99.90;;;;;;5055337;28;20205;-72
2022/07/22 10:37:40;;;;;;;0.40;0.40;;;25.10;99.90;;;;;;5056738;28;20217;-72
2022/07/22 10:40:31;;;;;;;1.25;1.15;;;25.10;99.90;;;;;;5055992;28;20197;-72
2022/07/22 10:43:20;;;;;;;0.70;0.70;;;24.90;99.90;;;;;;5055542;28;20205;-73
2022/07/22 10:46:09;;;;;;;1.05;0.77;;;24.70;99.90;;;;;;5054904;28;20229;-72
2022/07/22 10:48:59;;;;;;;0.82;0.68;;;24.70;99.90;;;;;;5055509;28;20201;-72
2022/07/22 10:52:16;;;;;;;1.60;1.10;;;24.90;99.90;;;;;;5058077;28;20202;-73
2022/07/22 10:55:21;;;;;;;0.85;0.82;;;24.90;99.90;;;;;;5057855;28;20247;-73
2022/07/22 10:58:44;;;;;;;1.75;0.85;;;24.90;99.90;;;;;;5084835;22;20223;-74
2022/07/22 11:01:32;;;;;;;1.02;0.93;;;24.90;99.90;;;;;;5096217;28;20212;-75
2022/07/22 11:04:26;;;;;;;0.50;0.50;;;25.10;99.90;;;;;;5094603;28;20200;-78
2022/07/22 11:07:14;;;;;;;0.93;0.82;;;25.30;99.90;;;;;;5093744;28;20224;-78
2022/07/22 11:10:11;;;;;;;0.77;0.77;;;25.70;99.90;;;;;;5095276;28;20200;-74
2022/07/22 11:13:07;;;;;;;0.50;0.50;;;25.50;99.90;;;;;;5095489;28;20196;-73
2022/07/22 11:16:14;;;;;;;0.98;0.98;;;25.00;99.90;;;;;;5095787;28;20202;-75
2022/07/22 11:19:03;;;;;;;0.60;0.60;;;25.10;99.90;;;;;;5095858;28;20594;-70
2022/07/22 11:21:54;;;;;;;1.17;1.08;;;25.40;99.90;;;;;;5094714;28;20200;-72
2022/07/22 11:24:43;;;;;;;0.60;0.60;;;25.70;99.90;;;;;;5094275;28;20215;-73
2022/07/22 11:27:31;;;;;;;0.60;0.60;;;25.90;99.90;;;;;;5094960;28;20227;-72
2022/07/22 11:30:21;;;;;;;2.28;1.13;;;26.30;99.90;;;;;;5095291;28;20203;-73
2022/07/22 11:33:09;;;;;;;1.02;1.02;;;26.30;99.90;;;;;;5094505;28;20261;-73
2022/07/22 11:36:03;;;;;;;0.60;0.60;;;26.10;99.90;;;;;;5094143;28;20200;-74
2022/07/22 11:38:52;;;;;;;0.50;0.50;;;26.40;99.90;;;;;;5093883;28;20277;-74
2022/07/22 11:41:41;;;;;;;0.90;0.90;;;26.70;99.90;;;;;;5093158;28;20207;-74
2022/07/22 11:44:32;;;;;;;1.40;0.82;;;26.70;99.90;;;;;;5094549;28;20203;-75
2022/07/22 11:47:22;;;;;;;0.40;0.40;;;26.10;99.90;;;;;;5094723;28;20216;-76
2022/07/22 11:50:10;;;;;;;0.60;0.60;;;25.80;99.90;;;;;;5095141;28;20204;-75
2022/07/22 11:53:02;;;;;;;0.80;0.80;;;25.80;99.90;;;;;;5094907;28;20226;-74
2022/07/22 11:55:50;;;;;;;0.40;0.40;;;25.90;99.90;;;;;;5094893;28;20256;-74
2022/07/22 11:58:43;;;;;;;0.50;0.50;;;25.90;99.90;;;;;;5094227;28;20297;-79
2022/07/22 12:01:33;;;;;;;0.40;0.40;;;26.20;99.90;;;;;;5093086;28;20196;-74
2022/07/22 12:04:25;;;;;;;1.65;1.55;;;26.50;99.90;;;;;;5093571;28;20578;-75
2022/07/22 12:07:14;;;;;;;1.23;1.13;;;27.30;99.90;;;;;;5093048;28;20227;-73
2022/07/22 12:10:03;;;;;;;0.90;0.90;;;27.30;99.90;;;;;;5091498;28;20577;-74
2022/07/22 12:12:52;;;;;;;1.05;0.85;;;27.20;99.90;;;;;;5093071;28;20211;-74
2022/07/22 12:15:40;;;;;;;0.70;0.57;;;26.90;99.90;;;;;;5090671;28;20204;-73
2022/07/22 12:18:40;;;;;;;1.30;1.20;;;27.10;99.90;;;;;;5092883;28;20251;-79
2022/07/22 12:21:30;;;;;;;0.40;0.40;;;26.60;99.90;;;;;;5092852;28;20211;-73
2022/07/22 12:24:27;;;;;;;0.88;0.88;;;26.10;99.90;;;;;;5094325;28;20196;-74
2022/07/22 12:27:17;;;;;;;0.77;0.77;;;25.90;99.90;;;;;;5093365;28;20234;-75
2022/07/22 12:30:12;;;;;;;0.80;0.80;;;25.90;99.90;;;;;;5094256;28;20199;-75
2022/07/22 12:33:01;;;;;;;1.05;0.95;;;25.40;99.90;;;;;;5093940;28;20312;-75
2022/07/22 12:36:02;;;;;;;0.40;0.40;;;25.40;99.90;;;;;;5093657;28;20200;-73
2022/07/22 12:38:51;;;;;;;0.40;0.40;;;25.30;99.90;;;;;;5093479;28;20603;-71
2022/07/22 12:41:49;;;;;;;1.20;0.80;;;25.10;99.90;;;;;;5093496;28;20215;-79
2022/07/22 12:44:37;;;;;;;0.70;0.70;;;25.00;99.90;;;;;;5093676;28;20227;-72
2022/07/22 12:47:47;;;;;;;0.40;0.40;;;25.10;99.90;;;;;;5092012;28;20224;-74
2022/07/22 12:50:37;;;;;;;0.50;0.50;;;26.00;99.90;;;;;;5090566;28;20199;-72
2022/07/22 12:53:29;;;;;;;1.25;1.02;;;27.10;99.90;;;;;;5093476;28;20207;-75
2022/07/22 12:56:20;;;;;;;0.40;0.40;;;26.50;99.90;;;;;;5091472;28;20200;-72
2022/07/22 12:59:09;;;;;;;5.45;1.50;;;26.30;99.90;;;;;;5091992;28;20227;-73
2022/07/22 13:01:57;;;;;;;0.93;0.57;;;26.60;99.90;;;;;;5091908;28;20200;-74
2022/07/22 13:04:45;;;;;;;0.40;0.40;;;27.10;99.90;;;;;;5091872;28;20279;-74
2022/07/22 13:07:34;;;;;;;3.22;0.70;;;27.20;99.90;;;;;;5090927;28;20277;-74
2022/07/22 13:10:27;;;;;;;0.40;0.40;;;27.80;99.90;;;;;;5091354;28;20192;-71
2022/07/22 13:13:17;;;;;;;0.40;0.40;;;29.80;99.90;;;;;;5091724;28;20226;-70
2022/07/22 13:16:05;;;;;;;0.55;0.55;;;31.20;99.90;;;;;;5091212;28;20192;-71
2022/07/22 13:18:53;;;;;;;0.47;0.47;;;32.60;99.90;;;;;;5091515;28;20223;-70
2022/07/22 13:21:43;;;;;;;0.77;0.77;;;33.40;99.90;;;;;;5091370;28;20207;-71
2022/07/22 13:24:31;;;;;;;0.50;0.50;;;33.80;97.70;;;;;;5091494;28;20223;-70
2022/07/22 13:27:19;;;;;;;0.40;0.40;;;33.50;95.60;;;;;;5093852;28;20216;-70
2022/07/22 13:30:10;;;;;;;0.40;0.40;;;33.20;95.20;;;;;;5094821;28;20549;-73
2022/07/22 13:33:00;;;;;;;0.40;0.40;;;31.80;95.50;;;;;;5095253;28;20200;-72
2022/07/22 13:35:48;;;;;;;0.60;0.60;;;30.20;97.90;;;;;;5094874;28;20204;-71
2022/07/22 13:38:36;;;;;;;0.40;0.40;;;29.10;99.90;;;;;;5094877;28;20246;-71
2022/07/22 13:41:24;;;;;;;0.50;0.50;;;30.30;99.70;;;;;;5094437;28;20192;-71
2022/07/22 13:44:12;;;;;;;0.40;0.40;;;32.40;97.20;;;;;;5094733;28;20557;-71
2022/07/22 13:47:02;;;;;;;0.55;0.55;;;34.00;93.80;;;;;;5095118;28;20203;-71
2022/07/22 13:49:50;;;;;;;0.40;0.40;;;35.80;90.50;;;;;;5095799;28;20203;-70
2022/07/22 13:52:38;;;;;;;1.02;1.02;;;36.40;85.90;;;;;;5095075;28;20211;-70
2022/07/22 13:55:28;;;;;;;0.60;0.60;;;36.20;81.40;;;;;;5094214;28;20203;-70
2022/07/22 13:58:16;;;;;;;0.82;0.50;;;34.60;84.00;;;;;;5094614;28;20268;-72
2022/07/22 14:01:04;;;;;;;0.50;0.50;;;34.50;84.10;;;;;;5094577;28;20238;-72
2022/07/22 14:03:54;;;;;;;0.40;0.40;;;33.50;85.00;;;;;;5094737;28;20306;-71
2022/07/22 14:06:43;;;;;;;0.50;0.50;;;34.10;85.40;;;;;;5094469;28;20192;-70
2022/07/22 14:09:31;;;;;;;0.40;0.40;;;35.70;80.30;;;;;;5094135;28;20197;-70
2022/07/22 14:12:26;;;;;;;0.50;0.50;;;36.90;77.40;;;;;;5093930;28;20211;-71
2022/07/22 14:15:15;;;;;;;0.80;0.80;;;36.90;74.60;;;;;;5080072;28;20577;-71
2022/07/22 14:18:06;;;;;;;2.05;0.90;;;35.90;74.90;;;;;;5073623;28;20262;-71
2022/07/22 14:20:55;;;;;;;0.50;0.50;;;35.90;74.60;;;;;;5074463;28;20220;-71
2022/07/22 14:23:43;;;;;;;0.77;0.77;;;36.20;74.40;;;;;;5074693;28;20196;-71
2022/07/22 14:26:32;;;;;;;1.00;0.90;;;35.80;73.40;;;;;;5073667;28;20204;-72
2022/07/22 14:29:21;;;;;;;0.70;0.70;;;35.40;74.00;;;;;;5074538;28;20196;-71
2022/07/22 14:32:10;;;;;;;0.40;0.40;;;35.30;73.90;;;;;;5074300;28;20201;-71
2022/07/22 14:34:58;;;;;;;0.80;0.80;;;35.50;73.90;;;;;;5074323;28;20200;-71
2022/07/22 14:37:47;;;;;;;0.70;0.70;;;36.00;72.70;;;;;;5073878;28;20778;-72
2022/07/22 14:40:35;;;;;;;0.50;0.50;;;37.30;70.10;;;;;;5073978;28;20286;-72
2022/07/22 14:43:24;;;;;;;0.50;0.50;;;37.50;67.60;;;;;;5074241;28;20200;-72
2022/07/22 14:46:25;;;;;;;0.50;0.50;;;36.20;69.70;;;;;;5073124;28;20287;-72